sensor_id;sensor_type;location;lat;lon;timestamp;P1;durP1;ratioP1;P2;durP2;ratioP2
13693;SDS011;6919;52.344;14.518;2022-08-01T00:00:07;4.20;;;2.67;;
13693;SDS011;6919;52.344;14.518;2022-08-01T00:02:37;6.97;;;2.80;;
13693;SDS011;6919;52.344;14.518;2022-08-01T00:05:07;5.33;;;2.90;;
13693;SDS011;6919;52.344;14.518;2022-08-01T00:07:36;4.43;;;2.73;;
13693;SDS011;6919;52.344;14.518;2022-08-01T00:10:06;9.60;;;2.93;;
13693;SDS011;6919;52.344;14.518;2022-08-01T00:12:39;4.63;;;2.60;;
13693;SDS011;6919;52.344;14.518;2022-08-01T00:15:10;4.47;;;2.53;;
13693;SDS011;6919;52.344;14.518;2022-08-01T00:17:41;4.20;;;2.77;;
13693;SDS011;6919;52.344;14.518;2022-08-01T00:20:11;3.90;;;2.63;;
13693;SDS011;6919;52.344;14.518;2022-08-01T00:22:41;5.47;;;2.70;;
13693;SDS011;6919;52.344;14.518;2022-08-01T00:25:10;3.43;;;2.50;;
13693;SDS011;6919;52.344;14.518;2022-08-01T00:27:38;3.67;;;2.97;;
13693;SDS011;6919;52.344;14.518;2022-08-01T00:30:07;7.83;;;2.93;;
13693;SDS011;6919;52.344;14.518;2022-08-01T00:32:40;3.07;;;2.30;;
13693;SDS011;6919;52.344;14.518;2022-08-01T00:35:09;5.63;;;2.70;;
13693;SDS011;6919;52.344;14.518;2022-08-01T00:37:38;4.33;;;2.60;;
13693;SDS011;6919;52.344;14.518;2022-08-01T00:40:06;4.63;;;2.60;;
13693;SDS011;6919;52.344;14.518;2022-08-01T00:42:37;3.50;;;2.53;;
13693;SDS011;6919;52.344;14.518;2022-08-01T00:45:09;7.37;;;2.60;;
13693;SDS011;6919;52.344;14.518;2022-08-01T00:47:38;2.97;;;2.73;;
13693;SDS011;6919;52.344;14.518;2022-08-01T00:50:06;5.10;;;2.70;;
13693;SDS011;6919;52.344;14.518;2022-08-01T00:52:36;3.60;;;2.10;;
13693;SDS011;6919;52.344;14.518;2022-08-01T00:55:06;2.90;;;2.43;;
13693;SDS011;6919;52.344;14.518;2022-08-01T00:57:41;3.73;;;2.73;;
13693;SDS011;6919;52.344;14.518;2022-08-01T01:00:30;3.43;;;2.53;;
13693;SDS011;6919;52.344;14.518;2022-08-01T01:03:18;3.53;;;2.13;;
13693;SDS011;6919;52.344;14.518;2022-08-01T01:06:13;2.57;;;2.37;;
13693;SDS011;6919;52.344;14.518;2022-08-01T01:08:58;2.57;;;2.30;;
13693;SDS011;6919;52.344;14.518;2022-08-01T01:11:44;4.30;;;2.20;;
13693;SDS011;6919;52.344;14.518;2022-08-01T01:14:29;3.07;;;2.70;;
13693;SDS011;6919;52.344;14.518;2022-08-01T01:17:04;3.00;;;2.47;;
13693;SDS011;6919;52.344;14.518;2022-08-01T01:19:37;3.43;;;2.60;;
13693;SDS011;6919;52.344;14.518;2022-08-01T01:22:18;2.60;;;2.20;;
13693;SDS011;6919;52.344;14.518;2022-08-01T01:25:01;5.53;;;2.47;;
13693;SDS011;6919;52.344;14.518;2022-08-01T01:27:49;2.90;;;2.40;;
13693;SDS011;6919;52.344;14.518;2022-08-01T01:30:30;4.37;;;2.40;;
13693;SDS011;6919;52.344;14.518;2022-08-01T01:33:02;4.90;;;2.50;;
13693;SDS011;6919;52.344;14.518;2022-08-01T01:35:35;3.83;;;2.50;;
13693;SDS011;6919;52.344;14.518;2022-08-01T01:38:10;5.00;;;2.33;;
13693;SDS011;6919;52.344;14.518;2022-08-01T01:40:46;2.83;;;2.50;;
13693;SDS011;6919;52.344;14.518;2022-08-01T01:43:19;4.57;;;2.63;;
13693;SDS011;6919;52.344;14.518;2022-08-01T01:46:00;3.50;;;2.50;;
13693;SDS011;6919;52.344;14.518;2022-08-01T01:48:30;5.17;;;2.87;;
13693;SDS011;6919;52.344;14.518;2022-08-01T01:51:02;2.57;;;2.33;;
13693;SDS011;6919;52.344;14.518;2022-08-01T01:53:33;3.77;;;2.30;;
13693;SDS011;6919;52.344;14.518;2022-08-01T01:56:03;3.83;;;2.97;;
13693;SDS011;6919;52.344;14.518;2022-08-01T01:58:31;3.03;;;2.07;;
13693;SDS011;6919;52.344;14.518;2022-08-01T02:01:06;3.27;;;2.30;;
13693;SDS011;6919;52.344;14.518;2022-08-01T02:03:40;4.20;;;2.50;;
13693;SDS011;6919;52.344;14.518;2022-08-01T02:06:10;3.00;;;2.30;;
13693;SDS011;6919;52.344;14.518;2022-08-01T02:08:41;2.67;;;2.30;;
13693;SDS011;6919;52.344;14.518;2022-08-01T02:11:12;2.53;;;2.30;;
13693;SDS011;6919;52.344;14.518;2022-08-01T02:13:48;5.13;;;2.40;;
13693;SDS011;6919;52.344;14.518;2022-08-01T02:16:25;2.93;;;2.60;;
13693;SDS011;6919;52.344;14.518;2022-08-01T02:18:57;5.53;;;2.50;;
13693;SDS011;6919;52.344;14.518;2022-08-01T02:21:27;3.73;;;2.70;;
13693;SDS011;6919;52.344;14.518;2022-08-01T02:24:02;4.83;;;3.07;;
13693;SDS011;6919;52.344;14.518;2022-08-01T02:26:42;6.43;;;2.30;;
13693;SDS011;6919;52.344;14.518;2022-08-01T02:29:18;3.83;;;2.67;;
13693;SDS011;6919;52.344;14.518;2022-08-01T02:31:55;7.40;;;3.03;;
13693;SDS011;6919;52.344;14.518;2022-08-01T02:34:25;7.30;;;2.57;;
13693;SDS011;6919;52.344;14.518;2022-08-01T02:36:59;4.53;;;2.50;;
13693;SDS011;6919;52.344;14.518;2022-08-01T02:39:30;5.30;;;2.70;;
13693;SDS011;6919;52.344;14.518;2022-08-01T02:42:00;2.97;;;2.63;;
13693;SDS011;6919;52.344;14.518;2022-08-01T02:44:35;7.53;;;2.90;;
13693;SDS011;6919;52.344;14.518;2022-08-01T02:47:10;6.77;;;3.37;;
13693;SDS011;6919;52.344;14.518;2022-08-01T02:49:42;4.10;;;2.57;;
13693;SDS011;6919;52.344;14.518;2022-08-01T02:52:19;3.17;;;2.67;;
13693;SDS011;6919;52.344;14.518;2022-08-01T02:54:51;3.70;;;2.53;;
13693;SDS011;6919;52.344;14.518;2022-08-01T02:57:23;4.93;;;2.60;;
13693;SDS011;6919;52.344;14.518;2022-08-01T03:00:13;3.60;;;2.57;;
13693;SDS011;6919;52.344;14.518;2022-08-01T03:02:44;4.93;;;2.80;;
13693;SDS011;6919;52.344;14.518;2022-08-01T03:05:16;4.53;;;2.90;;
13693;SDS011;6919;52.344;14.518;2022-08-01T03:07:46;2.87;;;2.67;;
13693;SDS011;6919;52.344;14.518;2022-08-01T03:10:15;3.57;;;2.63;;
13693;SDS011;6919;52.344;14.518;2022-08-01T03:12:44;4.43;;;2.93;;
13693;SDS011;6919;52.344;14.518;2022-08-01T03:15:15;3.90;;;2.70;;
13693;SDS011;6919;52.344;14.518;2022-08-01T03:17:48;4.10;;;2.70;;
13693;SDS011;6919;52.344;14.518;2022-08-01T03:20:20;4.67;;;3.13;;
13693;SDS011;6919;52.344;14.518;2022-08-01T03:22:53;3.17;;;2.77;;
13693;SDS011;6919;52.344;14.518;2022-08-01T03:25:24;3.40;;;2.90;;
13693;SDS011;6919;52.344;14.518;2022-08-01T03:27:56;6.27;;;3.10;;
13693;SDS011;6919;52.344;14.518;2022-08-01T03:30:30;2.53;;;2.33;;
13693;SDS011;6919;52.344;14.518;2022-08-01T03:33:03;3.47;;;2.70;;
13693;SDS011;6919;52.344;14.518;2022-08-01T03:35:33;3.97;;;3.00;;
13693;SDS011;6919;52.344;14.518;2022-08-01T03:38:07;4.27;;;3.20;;
13693;SDS011;6919;52.344;14.518;2022-08-01T03:40:43;5.40;;;3.30;;
13693;SDS011;6919;52.344;14.518;2022-08-01T03:43:18;3.87;;;2.97;;
13693;SDS011;6919;52.344;14.518;2022-08-01T03:45:53;4.93;;;3.47;;
13693;SDS011;6919;52.344;14.518;2022-08-01T03:48:31;5.57;;;3.33;;
13693;SDS011;6919;52.344;14.518;2022-08-01T03:51:03;3.10;;;2.80;;
13693;SDS011;6919;52.344;14.518;2022-08-01T03:53:35;5.50;;;3.47;;
13693;SDS011;6919;52.344;14.518;2022-08-01T03:56:07;3.70;;;3.33;;
13693;SDS011;6919;52.344;14.518;2022-08-01T03:58:38;6.37;;;3.70;;
13693;SDS011;6919;52.344;14.518;2022-08-01T04:01:09;5.10;;;3.17;;
13693;SDS011;6919;52.344;14.518;2022-08-01T04:03:42;5.33;;;3.30;;
13693;SDS011;6919;52.344;14.518;2022-08-01T04:06:12;5.60;;;3.40;;
13693;SDS011;6919;52.344;14.518;2022-08-01T04:08:40;4.27;;;3.40;;
13693;SDS011;6919;52.344;14.518;2022-08-01T04:11:09;3.93;;;3.03;;
13693;SDS011;6919;52.344;14.518;2022-08-01T04:13:38;11.17;;;3.80;;
13693;SDS011;6919;52.344;14.518;2022-08-01T04:16:09;6.07;;;3.20;;
13693;SDS011;6919;52.344;14.518;2022-08-01T04:18:37;4.00;;;3.13;;
13693;SDS011;6919;52.344;14.518;2022-08-01T04:21:07;6.13;;;3.30;;
13693;SDS011;6919;52.344;14.518;2022-08-01T04:23:35;4.07;;;3.27;;
13693;SDS011;6919;52.344;14.518;2022-08-01T04:26:06;4.90;;;3.57;;
13693;SDS011;6919;52.344;14.518;2022-08-01T04:28:37;5.13;;;3.10;;
13693;SDS011;6919;52.344;14.518;2022-08-01T04:31:10;6.23;;;3.20;;
13693;SDS011;6919;52.344;14.518;2022-08-01T04:33:42;3.43;;;3.10;;
13693;SDS011;6919;52.344;14.518;2022-08-01T04:36:17;5.67;;;3.60;;
13693;SDS011;6919;52.344;14.518;2022-08-01T04:38:51;7.37;;;3.17;;
13693;SDS011;6919;52.344;14.518;2022-08-01T04:41:25;4.57;;;3.47;;
13693;SDS011;6919;52.344;14.518;2022-08-01T04:43:54;4.00;;;3.10;;
13693;SDS011;6919;52.344;14.518;2022-08-01T04:46:25;5.53;;;3.33;;
13693;SDS011;6919;52.344;14.518;2022-08-01T04:48:56;4.27;;;3.27;;
13693;SDS011;6919;52.344;14.518;2022-08-01T04:51:28;4.77;;;3.47;;
13693;SDS011;6919;52.344;14.518;2022-08-01T04:53:56;5.10;;;3.20;;
13693;SDS011;6919;52.344;14.518;2022-08-01T04:56:24;6.00;;;3.77;;
13693;SDS011;6919;52.344;14.518;2022-08-01T04:58:52;9.30;;;3.37;;
13693;SDS011;6919;52.344;14.518;2022-08-01T05:01:40;4.57;;;3.87;;
13693;SDS011;6919;52.344;14.518;2022-08-01T05:04:08;4.03;;;3.20;;
13693;SDS011;6919;52.344;14.518;2022-08-01T05:06:38;4.27;;;3.33;;
13693;SDS011;6919;52.344;14.518;2022-08-01T05:09:06;4.63;;;3.00;;
13693;SDS011;6919;52.344;14.518;2022-08-01T05:11:34;8.67;;;3.47;;
13693;SDS011;6919;52.344;14.518;2022-08-01T05:14:02;4.30;;;3.10;;
13693;SDS011;6919;52.344;14.518;2022-08-01T05:16:30;5.63;;;3.43;;
13693;SDS011;6919;52.344;14.518;2022-08-01T05:18:58;6.03;;;3.37;;
13693;SDS011;6919;52.344;14.518;2022-08-01T05:21:28;3.90;;;3.07;;
13693;SDS011;6919;52.344;14.518;2022-08-01T05:23:58;3.87;;;3.37;;
13693;SDS011;6919;52.344;14.518;2022-08-01T05:26:26;3.23;;;2.93;;
13693;SDS011;6919;52.344;14.518;2022-08-01T05:28:54;3.43;;;3.03;;
13693;SDS011;6919;52.344;14.518;2022-08-01T05:31:22;5.97;;;2.77;;
13693;SDS011;6919;52.344;14.518;2022-08-01T05:33:51;4.47;;;3.07;;
13693;SDS011;6919;52.344;14.518;2022-08-01T05:36:19;5.03;;;3.00;;
13693;SDS011;6919;52.344;14.518;2022-08-01T05:38:47;3.97;;;3.17;;
13693;SDS011;6919;52.344;14.518;2022-08-01T05:41:16;6.80;;;3.37;;
13693;SDS011;6919;52.344;14.518;2022-08-01T05:43:45;4.43;;;2.53;;
13693;SDS011;6919;52.344;14.518;2022-08-01T05:46:13;2.97;;;2.70;;
13693;SDS011;6919;52.344;14.518;2022-08-01T05:48:41;2.87;;;2.60;;
13693;SDS011;6919;52.344;14.518;2022-08-01T05:51:09;3.97;;;2.90;;
13693;SDS011;6919;52.344;14.518;2022-08-01T05:53:37;3.33;;;2.53;;
13693;SDS011;6919;52.344;14.518;2022-08-01T05:56:05;3.60;;;2.40;;
13693;SDS011;6919;52.344;14.518;2022-08-01T05:58:34;5.40;;;3.00;;
13693;SDS011;6919;52.344;14.518;2022-08-01T06:01:03;3.73;;;2.60;;
13693;SDS011;6919;52.344;14.518;2022-08-01T06:03:31;5.13;;;2.83;;
13693;SDS011;6919;52.344;14.518;2022-08-01T06:05:59;3.67;;;2.80;;
13693;SDS011;6919;52.344;14.518;2022-08-01T06:08:28;3.50;;;3.07;;
13693;SDS011;6919;52.344;14.518;2022-08-01T06:10:56;4.43;;;2.70;;
13693;SDS011;6919;52.344;14.518;2022-08-01T06:13:25;3.30;;;3.00;;
13693;SDS011;6919;52.344;14.518;2022-08-01T06:15:54;3.80;;;2.73;;
13693;SDS011;6919;52.344;14.518;2022-08-01T06:18:23;6.80;;;2.80;;
13693;SDS011;6919;52.344;14.518;2022-08-01T06:20:52;2.60;;;2.40;;
13693;SDS011;6919;52.344;14.518;2022-08-01T06:23:20;4.83;;;2.90;;
13693;SDS011;6919;52.344;14.518;2022-08-01T06:25:58;4.87;;;2.13;;
13693;SDS011;6919;52.344;14.518;2022-08-01T06:28:26;4.13;;;2.67;;
13693;SDS011;6919;52.344;14.518;2022-08-01T06:30:56;4.47;;;2.87;;
13693;SDS011;6919;52.344;14.518;2022-08-01T06:33:25;4.13;;;2.90;;
13693;SDS011;6919;52.344;14.518;2022-08-01T06:35:54;3.03;;;2.73;;
13693;SDS011;6919;52.344;14.518;2022-08-01T06:38:22;4.17;;;2.60;;
13693;SDS011;6919;52.344;14.518;2022-08-01T06:40:50;3.73;;;2.60;;
13693;SDS011;6919;52.344;14.518;2022-08-01T06:43:18;3.50;;;3.17;;
13693;SDS011;6919;52.344;14.518;2022-08-01T06:45:47;4.43;;;2.80;;
13693;SDS011;6919;52.344;14.518;2022-08-01T06:48:17;5.50;;;2.93;;
13693;SDS011;6919;52.344;14.518;2022-08-01T06:50:45;4.37;;;2.87;;
13693;SDS011;6919;52.344;14.518;2022-08-01T06:53:13;3.10;;;2.33;;
13693;SDS011;6919;52.344;14.518;2022-08-01T06:55:41;4.37;;;2.50;;
13693;SDS011;6919;52.344;14.518;2022-08-01T06:58:09;3.27;;;2.40;;
13693;SDS011;6919;52.344;14.518;2022-08-01T07:00:37;3.77;;;2.60;;
13693;SDS011;6919;52.344;14.518;2022-08-01T07:03:06;4.73;;;2.77;;
13693;SDS011;6919;52.344;14.518;2022-08-01T07:05:35;3.00;;;2.70;;
13693;SDS011;6919;52.344;14.518;2022-08-01T07:08:03;5.23;;;3.47;;
13693;SDS011;6919;52.344;14.518;2022-08-01T07:10:32;3.87;;;2.83;;
13693;SDS011;6919;52.344;14.518;2022-08-01T07:13:00;4.13;;;3.00;;
13693;SDS011;6919;52.344;14.518;2022-08-01T07:15:28;6.77;;;3.10;;
13693;SDS011;6919;52.344;14.518;2022-08-01T07:17:56;8.93;;;3.40;;
13693;SDS011;6919;52.344;14.518;2022-08-01T07:20:27;4.23;;;3.03;;
13693;SDS011;6919;52.344;14.518;2022-08-01T07:23:04;5.97;;;3.77;;
13693;SDS011;6919;52.344;14.518;2022-08-01T07:25:33;4.73;;;3.90;;
13693;SDS011;6919;52.344;14.518;2022-08-01T07:28:01;3.43;;;2.93;;
13693;SDS011;6919;52.344;14.518;2022-08-01T07:30:29;4.10;;;3.17;;
13693;SDS011;6919;52.344;14.518;2022-08-01T07:32:58;4.63;;;3.43;;
13693;SDS011;6919;52.344;14.518;2022-08-01T07:35:26;3.57;;;3.00;;
13693;SDS011;6919;52.344;14.518;2022-08-01T07:37:55;4.20;;;3.27;;
13693;SDS011;6919;52.344;14.518;2022-08-01T07:40:24;4.33;;;3.17;;
13693;SDS011;6919;52.344;14.518;2022-08-01T07:42:52;4.97;;;3.73;;
13693;SDS011;6919;52.344;14.518;2022-08-01T07:45:20;7.50;;;3.60;;
13693;SDS011;6919;52.344;14.518;2022-08-01T07:47:48;6.33;;;3.67;;
13693;SDS011;6919;52.344;14.518;2022-08-01T07:50:17;5.40;;;4.60;;
13693;SDS011;6919;52.344;14.518;2022-08-01T07:52:45;4.20;;;3.40;;
13693;SDS011;6919;52.344;14.518;2022-08-01T07:55:13;5.23;;;3.93;;
13693;SDS011;6919;52.344;14.518;2022-08-01T07:57:43;4.47;;;4.07;;
13693;SDS011;6919;52.344;14.518;2022-08-01T08:00:12;4.53;;;4.13;;
13693;SDS011;6919;52.344;14.518;2022-08-01T08:02:41;4.73;;;4.13;;
13693;SDS011;6919;52.344;14.518;2022-08-01T08:05:10;5.60;;;4.47;;
13693;SDS011;6919;52.344;14.518;2022-08-01T08:07:38;5.80;;;4.20;;
13693;SDS011;6919;52.344;14.518;2022-08-01T08:10:07;5.10;;;4.60;;
13693;SDS011;6919;52.344;14.518;2022-08-01T08:12:36;8.90;;;5.80;;
13693;SDS011;6919;52.344;14.518;2022-08-01T08:15:06;6.50;;;5.80;;
13693;SDS011;6919;52.344;14.518;2022-08-01T08:17:36;6.67;;;5.30;;
13693;SDS011;6919;52.344;14.518;2022-08-01T08:20:05;6.23;;;5.50;;
13693;SDS011;6919;52.344;14.518;2022-08-01T08:22:35;6.50;;;5.80;;
13693;SDS011;6919;52.344;14.518;2022-08-01T08:25:05;6.13;;;5.53;;
13693;SDS011;6919;52.344;14.518;2022-08-01T08:27:37;6.30;;;5.67;;
13693;SDS011;6919;52.344;14.518;2022-08-01T08:30:07;6.53;;;5.37;;
13693;SDS011;6919;52.344;14.518;2022-08-01T08:32:37;5.83;;;5.27;;
13693;SDS011;6919;52.344;14.518;2022-08-01T08:35:06;6.40;;;5.80;;
13693;SDS011;6919;52.344;14.518;2022-08-01T08:37:37;6.43;;;5.67;;
13693;SDS011;6919;52.344;14.518;2022-08-01T08:40:13;5.20;;;4.70;;
13693;SDS011;6919;52.344;14.518;2022-08-01T08:42:43;5.63;;;4.70;;
13693;SDS011;6919;52.344;14.518;2022-08-01T08:45:14;7.77;;;5.27;;
13693;SDS011;6919;52.344;14.518;2022-08-01T08:47:43;6.57;;;5.83;;
13693;SDS011;6919;52.344;14.518;2022-08-01T08:50:14;5.57;;;5.03;;
13693;SDS011;6919;52.344;14.518;2022-08-01T08:52:43;12.30;;;5.07;;
13693;SDS011;6919;52.344;14.518;2022-08-01T08:55:15;6.27;;;5.43;;
13693;SDS011;6919;52.344;14.518;2022-08-01T08:57:45;5.30;;;4.80;;
13693;SDS011;6919;52.344;14.518;2022-08-01T09:00:16;5.43;;;4.73;;
13693;SDS011;6919;52.344;14.518;2022-08-01T09:02:44;6.53;;;4.70;;
13693;SDS011;6919;52.344;14.518;2022-08-01T09:05:15;7.30;;;5.17;;
13693;SDS011;6919;52.344;14.518;2022-08-01T09:07:45;8.83;;;5.13;;
13693;SDS011;6919;52.344;14.518;2022-08-01T09:10:13;6.47;;;4.27;;
13693;SDS011;6919;52.344;14.518;2022-08-01T09:15:38;8.03;;;4.00;;
13693;SDS011;6919;52.344;14.518;2022-08-01T09:18:25;7.20;;;4.30;;
13693;SDS011;6919;52.344;14.518;2022-08-01T09:21:08;5.13;;;3.87;;
13693;SDS011;6919;52.344;14.518;2022-08-01T09:23:41;4.97;;;2.70;;
13693;SDS011;6919;52.344;14.518;2022-08-01T09:26:20;2.90;;;2.60;;
13693;SDS011;6919;52.344;14.518;2022-08-01T09:28:56;2.20;;;2.00;;
13693;SDS011;6919;52.344;14.518;2022-08-01T09:31:27;2.97;;;2.17;;
13693;SDS011;6919;52.344;14.518;2022-08-01T09:34:04;2.30;;;2.10;;
13693;SDS011;6919;52.344;14.518;2022-08-01T09:36:43;5.57;;;2.13;;
13693;SDS011;6919;52.344;14.518;2022-08-01T09:39:26;3.77;;;2.40;;
13693;SDS011;6919;52.344;14.518;2022-08-01T09:41:57;2.23;;;2.03;;
13693;SDS011;6919;52.344;14.518;2022-08-01T09:44:38;3.07;;;2.37;;
13693;SDS011;6919;52.344;14.518;2022-08-01T09:47:21;2.27;;;2.10;;
13693;SDS011;6919;52.344;14.518;2022-08-01T09:50:04;2.50;;;2.30;;
13693;SDS011;6919;52.344;14.518;2022-08-01T09:52:36;3.87;;;2.57;;
13693;SDS011;6919;52.344;14.518;2022-08-01T09:55:07;2.73;;;2.30;;
13693;SDS011;6919;52.344;14.518;2022-08-01T09:57:38;4.50;;;2.40;;
13693;SDS011;6919;52.344;14.518;2022-08-01T10:00:16;2.87;;;2.50;;
13693;SDS011;6919;52.344;14.518;2022-08-01T10:03:23;2.33;;;2.13;;
13693;SDS011;6919;52.344;14.518;2022-08-01T10:05:53;2.53;;;2.30;;
13693;SDS011;6919;52.344;14.518;2022-08-01T10:08:23;2.77;;;2.00;;
13693;SDS011;6919;52.344;14.518;2022-08-01T10:11:05;3.23;;;2.00;;
13693;SDS011;6919;52.344;14.518;2022-08-01T10:13:37;3.07;;;2.13;;
13693;SDS011;6919;52.344;14.518;2022-08-01T10:16:06;2.13;;;1.93;;
13693;SDS011;6919;52.344;14.518;2022-08-01T10:18:37;2.17;;;1.70;;
13693;SDS011;6919;52.344;14.518;2022-08-01T10:21:10;3.60;;;1.90;;
13693;SDS011;6919;52.344;14.518;2022-08-01T10:23:39;4.90;;;2.00;;
13693;SDS011;6919;52.344;14.518;2022-08-01T10:26:09;2.93;;;1.90;;
13693;SDS011;6919;52.344;14.518;2022-08-01T10:28:40;2.57;;;1.80;;
13693;SDS011;6919;52.344;14.518;2022-08-01T10:31:12;1.60;;;1.50;;
13693;SDS011;6919;52.344;14.518;2022-08-01T10:33:42;2.20;;;1.60;;
13693;SDS011;6919;52.344;14.518;2022-08-01T10:36:18;3.23;;;1.40;;
13693;SDS011;6919;52.344;14.518;2022-08-01T10:38:51;1.53;;;1.43;;
13693;SDS011;6919;52.344;14.518;2022-08-01T10:41:21;1.60;;;1.50;;
13693;SDS011;6919;52.344;14.518;2022-08-01T10:43:52;1.77;;;1.67;;
13693;SDS011;6919;52.344;14.518;2022-08-01T10:46:22;1.93;;;1.67;;
13693;SDS011;6919;52.344;14.518;2022-08-01T10:48:54;1.50;;;1.40;;
13693;SDS011;6919;52.344;14.518;2022-08-01T10:54:04;1.77;;;1.57;;
13693;SDS011;6919;52.344;14.518;2022-08-01T10:56:48;1.90;;;1.80;;
13693;SDS011;6919;52.344;14.518;2022-08-01T10:59:28;3.50;;;1.77;;
13693;SDS011;6919;52.344;14.518;2022-08-01T11:02:25;4.97;;;1.80;;
13693;SDS011;6919;52.344;14.518;2022-08-01T11:05:00;3.53;;;1.80;;
13693;SDS011;6919;52.344;14.518;2022-08-01T11:07:37;1.67;;;1.57;;
13693;SDS011;6919;52.344;14.518;2022-08-01T11:10:25;2.13;;;1.93;;
13693;SDS011;6919;52.344;14.518;2022-08-01T11:13:05;3.00;;;1.60;;
13693;SDS011;6919;52.344;14.518;2022-08-01T11:15:34;2.17;;;1.73;;
13693;SDS011;6919;52.344;14.518;2022-08-01T11:18:29;2.10;;;1.80;;
13693;SDS011;6919;52.344;14.518;2022-08-01T11:21:04;2.60;;;1.83;;
13693;SDS011;6919;52.344;14.518;2022-08-01T11:23:52;1.80;;;1.70;;
13693;SDS011;6919;52.344;14.518;2022-08-01T11:26:24;3.97;;;1.80;;
13693;SDS011;6919;52.344;14.518;2022-08-01T11:29:12;4.03;;;1.77;;
13693;SDS011;6919;52.344;14.518;2022-08-01T11:31:48;1.53;;;1.43;;
13693;SDS011;6919;52.344;14.518;2022-08-01T11:34:18;1.90;;;1.80;;
13693;SDS011;6919;52.344;14.518;2022-08-01T11:36:48;1.47;;;1.30;;
13693;SDS011;6919;52.344;14.518;2022-08-01T11:45:48;1.90;;;1.20;;
13693;SDS011;6919;52.344;14.518;2022-08-01T11:48:20;1.57;;;1.40;;
13693;SDS011;6919;52.344;14.518;2022-08-01T11:50:53;4.40;;;1.53;;
13693;SDS011;6919;52.344;14.518;2022-08-01T11:53:28;1.40;;;1.30;;
13693;SDS011;6919;52.344;14.518;2022-08-01T11:56:02;1.80;;;1.40;;
13693;SDS011;6919;52.344;14.518;2022-08-01T11:58:30;1.90;;;1.70;;
13693;SDS011;6919;52.344;14.518;2022-08-01T12:01:00;2.13;;;1.47;;
13693;SDS011;6919;52.344;14.518;2022-08-01T12:03:29;1.37;;;1.27;;
13693;SDS011;6919;52.344;14.518;2022-08-01T12:06:00;1.40;;;1.30;;
13693;SDS011;6919;52.344;14.518;2022-08-01T12:08:32;1.70;;;1.20;;
13693;SDS011;6919;52.344;14.518;2022-08-01T12:11:03;2.27;;;1.33;;
13693;SDS011;6919;52.344;14.518;2022-08-01T12:13:39;1.10;;;1.00;;
13693;SDS011;6919;52.344;14.518;2022-08-01T12:16:09;1.20;;;1.10;;
13693;SDS011;6919;52.344;14.518;2022-08-01T12:18:38;1.53;;;1.20;;
13693;SDS011;6919;52.344;14.518;2022-08-01T12:21:08;1.90;;;1.03;;
13693;SDS011;6919;52.344;14.518;2022-08-01T12:23:38;2.50;;;1.30;;
13693;SDS011;6919;52.344;14.518;2022-08-01T12:26:06;3.17;;;1.37;;
13693;SDS011;6919;52.344;14.518;2022-08-01T12:28:54;4.90;;;1.30;;
13693;SDS011;6919;52.344;14.518;2022-08-01T12:31:30;1.17;;;1.07;;
13693;SDS011;6919;52.344;14.518;2022-08-01T12:36:56;1.73;;;1.30;;
13693;SDS011;6919;52.344;14.518;2022-08-01T12:39:32;2.93;;;1.20;;
13693;SDS011;6919;52.344;14.518;2022-08-01T12:42:06;3.07;;;1.43;;
13693;SDS011;6919;52.344;14.518;2022-08-01T12:44:36;3.57;;;1.20;;
13693;SDS011;6919;52.344;14.518;2022-08-01T12:47:06;1.70;;;1.27;;
13693;SDS011;6919;52.344;14.518;2022-08-01T12:49:35;1.47;;;1.37;;
13693;SDS011;6919;52.344;14.518;2022-08-01T12:52:05;4.87;;;1.20;;
13693;SDS011;6919;52.344;14.518;2022-08-01T12:57:37;2.73;;;1.37;;
13693;SDS011;6919;52.344;14.518;2022-08-01T13:00:08;2.50;;;1.10;;
13693;SDS011;6919;52.344;14.518;2022-08-01T13:02:50;3.20;;;1.13;;
13693;SDS011;6919;52.344;14.518;2022-08-01T13:05:41;1.75;;;1.33;;
13693;SDS011;6919;52.344;14.518;2022-08-01T13:08:11;0.88;;;0.88;;
13693;SDS011;6919;52.344;14.518;2022-08-01T13:10:43;1.30;;;1.20;;
13693;SDS011;6919;52.344;14.518;2022-08-01T13:13:13;2.47;;;1.00;;
13693;SDS011;6919;52.344;14.518;2022-08-01T13:16:02;2.38;;;0.90;;
13693;SDS011;6919;52.344;14.518;2022-08-01T13:18:37;2.05;;;1.00;;
13693;SDS011;6919;52.344;14.518;2022-08-01T13:21:07;1.00;;;0.90;;
13693;SDS011;6919;52.344;14.518;2022-08-01T13:23:38;1.42;;;1.00;;
13693;SDS011;6919;52.344;14.518;2022-08-01T13:26:41;1.10;;;1.00;;
13693;SDS011;6919;52.344;14.518;2022-08-01T13:29:12;3.97;;;1.08;;
13693;SDS011;6919;52.344;14.518;2022-08-01T13:31:43;4.57;;;1.10;;
13693;SDS011;6919;52.344;14.518;2022-08-01T13:34:14;3.58;;;1.10;;
13693;SDS011;6919;52.344;14.518;2022-08-01T13:36:42;1.70;;;1.30;;
13693;SDS011;6919;52.344;14.518;2022-08-01T13:39:15;1.30;;;1.20;;
13693;SDS011;6919;52.344;14.518;2022-08-01T13:42:02;4.07;;;1.13;;
13693;SDS011;6919;52.344;14.518;2022-08-01T13:44:31;1.93;;;1.13;;
13693;SDS011;6919;52.344;14.518;2022-08-01T13:46:59;3.70;;;1.10;;
13693;SDS011;6919;52.344;14.518;2022-08-01T13:49:41;1.80;;;1.33;;
13693;SDS011;6919;52.344;14.518;2022-08-01T13:52:09;1.50;;;1.20;;
13693;SDS011;6919;52.344;14.518;2022-08-01T13:54:37;6.23;;;1.13;;
13693;SDS011;6919;52.344;14.518;2022-08-01T13:57:07;2.07;;;1.10;;
13693;SDS011;6919;52.344;14.518;2022-08-01T13:59:37;1.40;;;1.00;;
13693;SDS011;6919;52.344;14.518;2022-08-01T14:02:06;2.90;;;1.17;;
13693;SDS011;6919;52.344;14.518;2022-08-01T14:04:35;2.07;;;1.10;;
13693;SDS011;6919;52.344;14.518;2022-08-01T14:07:03;2.15;;;1.08;;
13693;SDS011;6919;52.344;14.518;2022-08-01T14:09:36;2.50;;;1.45;;
13693;SDS011;6919;52.344;14.518;2022-08-01T14:12:25;1.50;;;1.15;;
13693;SDS011;6919;52.344;14.518;2022-08-01T14:14:53;2.70;;;1.13;;
13693;SDS011;6919;52.344;14.518;2022-08-01T14:17:22;1.10;;;1.00;;
13693;SDS011;6919;52.344;14.518;2022-08-01T14:19:53;1.65;;;1.00;;
13693;SDS011;6919;52.344;14.518;2022-08-01T14:22:22;1.50;;;0.90;;
13693;SDS011;6919;52.344;14.518;2022-08-01T14:24:50;4.27;;;0.80;;
13693;SDS011;6919;52.344;14.518;2022-08-01T14:27:27;1.50;;;0.80;;
13693;SDS011;6919;52.344;14.518;2022-08-01T14:29:57;2.10;;;1.00;;
13693;SDS011;6919;52.344;14.518;2022-08-01T14:32:29;3.17;;;0.90;;
13693;SDS011;6919;52.344;14.518;2022-08-01T14:34:59;1.00;;;0.90;;
13693;SDS011;6919;52.344;14.518;2022-08-01T14:37:28;1.00;;;0.90;;
13693;SDS011;6919;52.344;14.518;2022-08-01T14:40:03;1.05;;;0.95;;
13693;SDS011;6919;52.344;14.518;2022-08-01T14:42:37;1.25;;;0.88;;
13693;SDS011;6919;52.344;14.518;2022-08-01T14:45:06;1.33;;;1.15;;
13693;SDS011;6919;52.344;14.518;2022-08-01T14:47:36;0.85;;;0.85;;
13693;SDS011;6919;52.344;14.518;2022-08-01T14:50:07;0.70;;;0.70;;
13693;SDS011;6919;52.344;14.518;2022-08-01T14:52:39;1.48;;;0.80;;
13693;SDS011;6919;52.344;14.518;2022-08-01T14:55:09;2.22;;;0.80;;
13693;SDS011;6919;52.344;14.518;2022-08-01T14:57:40;0.82;;;0.80;;
13693;SDS011;6919;52.344;14.518;2022-08-01T15:00:09;1.88;;;0.73;;
13693;SDS011;6919;52.344;14.518;2022-08-01T15:02:39;1.27;;;0.85;;
13693;SDS011;6919;52.344;14.518;2022-08-01T15:05:08;1.43;;;1.30;;
13693;SDS011;6919;52.344;14.518;2022-08-01T15:07:37;4.23;;;1.87;;
13693;SDS011;6919;52.344;14.518;2022-08-01T15:10:16;2.03;;;0.73;;
13693;SDS011;6919;52.344;14.518;2022-08-01T15:12:46;0.90;;;0.70;;
13693;SDS011;6919;52.344;14.518;2022-08-01T15:15:16;0.70;;;0.70;;
13693;SDS011;6919;52.344;14.518;2022-08-01T15:17:45;1.40;;;0.80;;
13693;SDS011;6919;52.344;14.518;2022-08-01T15:20:13;0.70;;;0.70;;
13693;SDS011;6919;52.344;14.518;2022-08-01T15:22:41;0.73;;;0.73;;
13693;SDS011;6919;52.344;14.518;2022-08-01T15:25:10;1.10;;;0.80;;
13693;SDS011;6919;52.344;14.518;2022-08-01T15:27:38;1.20;;;1.03;;
13693;SDS011;6919;52.344;14.518;2022-08-01T15:30:08;0.90;;;0.90;;
13693;SDS011;6919;52.344;14.518;2022-08-01T15:32:37;0.70;;;0.70;;
13693;SDS011;6919;52.344;14.518;2022-08-01T15:35:06;1.20;;;0.93;;